Time;durP1;ratioP1;P1;durP2;ratioP2;P2;SDS_P1;SDS_P2;PMS_P1;PMS_P2;Temp;Humidity;BMP_temperature;BMP_pressure;BME280_temperature;BME280_humidity;BME280_pressure;Samples;Min_cycle;Max_cycle;Signal;HPM_P1;HPM_P2
2023/04/19 00:01:38;;;;;;;19.35;7.85;;;8.10;99.90;;;;;;5043032;28;20378;-56
2023/04/19 00:04:07;;;;;;;18.88;7.72;;;8.00;99.90;;;;;;5032352;28;20045;-56
2023/04/19 00:06:35;;;;;;;21.23;7.93;;;8.00;99.90;;;;;;5023027;28;20037;-56
2023/04/19 00:09:02;;;;;;;19.48;8.18;;;7.90;99.90;;;;;;5024185;28;20050;-56
2023/04/19 00:11:30;;;;;;;22.75;9.25;;;7.80;99.90;;;;;;5024379;28;20056;-56
2023/04/19 00:14:01;;;;;;;16.45;7.85;;;7.80;99.90;;;;;;5024361;28;20057;-57
2023/04/19 00:16:29;;;;;;;24.38;8.75;;;;;;;;;;5043215;28;20562;-58
2023/04/19 00:18:56;;;;;;;20.63;8.80;;;7.80;99.90;;;;;;5044363;28;20060;-57
2023/04/19 00:21:30;;;;;;;15.98;8.05;;;7.70;99.90;;;;;;5021264;28;20046;-57
2023/04/19 00:23:58;;;;;;;23.30;9.63;;;7.70;99.90;;;;;;5034638;28;20477;-58
2023/04/19 00:26:25;;;;;;;17.55;8.25;;;7.70;99.90;;;;;;5045569;28;20041;-56
2023/04/19 00:28:53;;;;;;;22.50;9.30;;;7.60;99.90;;;;;;5026605;28;20497;-56
2023/04/19 00:31:22;;;;;;;20.63;8.93;;;7.60;99.90;;;;;;5021491;28;20061;-55
2023/04/19 00:33:49;;;;;;;28.55;9.55;;;7.60;99.90;;;;;;5035184;28;20041;-57
2023/04/19 00:36:17;;;;;;;15.35;8.65;;;7.60;99.90;;;;;;5052773;28;20638;-56
2023/04/19 00:38:47;;;;;;;19.35;8.23;;;7.50;99.90;;;;;;5063765;28;20064;-57
2023/04/19 00:41:15;;;;;;;21.08;9.10;;;7.50;99.90;;;;;;5071014;28;20053;-57
2023/04/19 00:43:42;;;;;;;21.70;9.45;;;7.50;99.90;;;;;;5054792;28;20037;-59
2023/04/19 00:46:10;;;;;;;21.98;9.05;;;7.50;99.90;;;;;;5054518;28;20049;-57
2023/04/19 00:48:38;;;;;;;22.05;8.73;;;7.50;99.90;;;;;;5062276;28;20373;-59
2023/04/19 00:51:06;;;;;;;20.95;8.50;;;7.50;99.90;;;;;;5067258;28;20040;-58
2023/04/19 00:53:34;;;;;;;16.77;9.63;;;7.50;99.90;;;;;;5063203;28;20055;-58
2023/04/19 00:56:04;;;;;;;21.15;9.68;;;7.50;99.90;;;;;;5047414;28;20340;-57
2023/04/19 00:58:31;;;;;;;19.75;8.70;;;7.50;99.90;;;;;;5055765;28;20047;-56
2023/04/19 01:00:59;;;;;;;18.40;8.50;;;7.50;99.90;;;;;;5069826;28;20056;-57
2023/04/19 01:03:29;;;;;;;14.80;9.02;;;7.50;99.90;;;;;;5064876;28;20049;-57
2023/04/19 01:05:57;;;;;;;20.48;8.90;;;7.50;99.90;;;;;;5056966;28;20476;-59
2023/04/19 01:08:25;;;;;;;24.35;9.77;;;7.50;99.90;;;;;;5056450;28;20044;-58
2023/04/19 01:10:53;;;;;;;21.15;9.02;;;7.60;99.90;;;;;;5070510;28;20060;-57
2023/04/19 01:13:21;;;;;;;18.08;8.48;;;7.60;99.90;;;;;;5061602;28;20359;-58
2023/04/19 01:15:50;;;;;;;21.73;9.27;;;7.60;99.90;;;;;;5039412;28;20049;-57
2023/04/19 01:18:21;;;;;;;20.70;8.73;;;7.60;99.90;;;;;;5070066;28;20032;-58
2023/04/19 01:20:49;;;;;;;18.67;8.63;;;7.70;99.90;;;;;;5062153;28;20049;-57
2023/04/19 01:23:17;;;;;;;20.60;8.30;;;7.70;99.90;;;;;;5038149;28;20509;-57
2023/04/19 01:25:45;;;;;;;17.85;8.10;;;7.70;99.90;;;;;;5056566;28;20049;-57
2023/04/19 01:28:13;;;;;;;23.08;8.82;;;7.70;99.90;;;;;;5037493;28;20052;-57
2023/04/19 01:30:40;;;;;;;23.27;8.82;;;7.70;99.90;;;;;;5061503;28;20048;-55
2023/04/19 01:33:08;;;;;;;22.05;8.77;;;7.80;99.90;;;;;;5063425;28;20393;-55
2023/04/19 01:35:36;;;;;;;18.80;8.13;;;7.80;99.90;;;;;;5065239;28;20052;-56
2023/04/19 01:38:04;;;;;;;20.60;8.55;;;7.80;99.90;;;;;;5060924;28;20500;-55
2023/04/19 01:40:32;;;;;;;19.73;7.40;;;7.80;99.90;;;;;;5072344;28;20048;-56
2023/04/19 01:42:59;;;;;;;20.58;7.88;;;7.80;99.90;;;;;;5070595;28;20048;-56
2023/04/19 01:45:27;;;;;;;19.77;8.57;;;7.80;99.90;;;;;;5063382;28;20279;-55
2023/04/19 01:47:55;;;;;;;16.23;8.80;;;7.80;99.90;;;;;;5051114;28;20488;-56
2023/04/19 01:50:23;;;;;;;22.38;8.23;;;7.80;99.90;;;;;;5051823;28;20047;-56
2023/04/19 01:52:51;;;;;;;15.07;7.30;;;7.80;99.90;;;;;;5068714;28;20044;-57
2023/04/19 01:55:18;;;;;;;27.67;8.68;;;7.80;99.90;;;;;;5061598;28;20465;-56
2023/04/19 01:57:46;;;;;;;29.45;9.27;;;7.80;99.90;;;;;;5051168;28;20044;-57
2023/04/19 02:00:14;;;;;;;18.65;7.70;;;7.80;99.90;;;;;;5051701;28;20523;-57
2023/04/19 02:02:41;;;;;;;20.75;9.45;;;7.80;99.90;;;;;;5058981;28;20601;-54
2023/04/19 02:05:10;;;;;;;23.77;9.43;;;7.80;99.90;;;;;;5066890;28;20059;-57
2023/04/19 02:07:38;;;;;;;17.55;7.65;;;7.80;99.90;;;;;;5071412;28;20049;-56
2023/04/19 02:10:08;;;;;;;21.42;8.23;;;7.80;99.90;;;;;;5054248;28;20048;-55
2023/04/19 02:12:35;;;;;;;15.57;7.53;;;7.80;99.90;;;;;;5052043;28;20052;-56
2023/04/19 02:15:03;;;;;;;22.00;9.48;;;7.80;99.90;;;;;;5066290;28;20503;-56
2023/04/19 02:17:34;;;;;;;22.02;9.00;;;7.80;99.90;;;;;;5050550;28;20068;-56
2023/04/19 02:20:03;;;;;;;20.40;8.50;;;7.80;99.90;;;;;;5059987;28;20037;-56
2023/04/19 02:22:31;;;;;;;19.60;8.57;;;;;;;;;;5071246;28;20049;-56
2023/04/19 02:24:59;;;;;;;22.55;7.75;;;7.80;99.90;;;;;;5063045;28;20043;-57
2023/04/19 02:27:31;;;;;;;22.02;8.75;;;7.80;99.90;;;;;;5069513;28;20053;-56
2023/04/19 02:29:59;;;;;;;22.80;8.95;;;7.80;99.90;;;;;;5065745;28;20496;-56
2023/04/19 02:32:27;;;;;;;18.98;7.60;;;7.70;99.90;;;;;;5072018;28;20044;-57
2023/04/19 02:34:55;;;;;;;20.98;8.00;;;7.70;99.90;;;;;;5052145;28;20056;-58
2023/04/19 02:37:23;;;;;;;21.38;7.90;;;7.70;99.90;;;;;;5028053;28;20037;-56
2023/04/19 02:39:50;;;;;;;23.90;8.05;;;7.80;99.90;;;;;;5022248;28;20151;-57
2023/04/19 02:42:18;;;;;;;25.38;9.77;;;7.70;99.90;;;;;;5046130;28;20523;-56
2023/04/19 02:44:45;;;;;;;19.48;9.55;;;7.70;99.90;;;;;;5023198;28;20045;-57
2023/04/19 02:47:14;;;;;;;19.90;9.30;;;7.70;99.90;;;;;;5027167;28;20045;-57
2023/04/19 02:49:42;;;;;;;18.48;9.65;;;7.70;99.90;;;;;;5045187;28;20048;-57
2023/04/19 02:52:10;;;;;;;23.63;9.95;;;7.60;99.90;;;;;;5044996;28;20396;-56
2023/04/19 02:54:40;;;;;;;19.33;8.45;;;7.70;99.90;;;;;;5023051;28;20133;-57
2023/04/19 02:57:08;;;;;;;20.83;9.50;;;7.70;99.90;;;;;;5029866;28;20044;-57
2023/04/19 02:59:36;;;;;;;26.70;9.45;;;7.60;99.90;;;;;;5014415;28;20038;-57
2023/04/19 03:02:04;;;;;;;25.08;9.90;;;7.70;99.90;;;;;;5024416;28;20045;-56
2023/04/19 03:04:33;;;;;;;23.60;9.63;;;7.70;99.90;;;;;;5031466;28;20060;-56
2023/04/19 03:07:01;;;;;;;23.60;9.70;;;7.70;99.90;;;;;;5031792;28;20104;-57
2023/04/19 03:09:29;;;;;;;22.77;9.32;;;7.70;99.90;;;;;;5014008;28;20379;-58
2023/04/19 03:11:57;;;;;;;22.30;9.70;;;7.70;99.90;;;;;;5028644;28;20051;-56
2023/04/19 03:14:25;;;;;;;25.02;11.20;;;7.70;99.90;;;;;;5033402;28;20041;-57
2023/04/19 03:16:53;;;;;;;28.40;9.82;;;7.70;99.90;;;;;;5031754;28;20508;-57
2023/04/19 03:19:21;;;;;;;22.65;10.18;;;7.70;99.90;;;;;;5023555;28;20044;-56
2023/04/19 03:21:51;;;;;;;24.60;9.93;;;7.70;99.90;;;;;;5020926;28;20045;-56
2023/04/19 03:24:30;;;;;;;24.02;9.60;;;7.80;99.90;;;;;;5019916;28;20045;-56
2023/04/19 03:27:07;;;;;;;25.65;9.93;;;7.80;99.90;;;;;;5055212;28;20053;-55
2023/04/19 03:29:35;;;;;;;23.27;9.60;;;7.80;99.90;;;;;;5041148;28;20044;-55
2023/04/19 03:32:06;;;;;;;21.02;10.40;;;7.80;99.90;;;;;;5023146;28;20481;-55
2023/04/19 03:34:34;;;;;;;25.95;11.20;;;7.80;99.90;;;;;;5048377;28;20048;-56
2023/04/19 03:37:01;;;;;;;28.85;10.82;;;7.80;99.90;;;;;;5057461;28;20044;-56
2023/04/19 03:39:31;;;;;;;35.42;10.52;;;7.80;99.90;;;;;;5057152;28;20047;-55
2023/04/19 03:42:03;;;;;;;23.10;8.85;;;7.90;99.90;;;;;;5038949;28;20036;-54
2023/04/19 03:44:57;;;;;;;31.15;11.50;;;7.90;99.90;;;;;;5050417;28;20056;-55
2023/04/19 03:47:29;;;;;;;30.52;11.93;;;7.90;99.90;;;;;;5054056;28;20067;-55
2023/04/19 03:49:58;;;;;;;28.60;11.02;;;7.90;99.90;;;;;;5058391;28;20048;-57
2023/04/19 03:52:27;;;;;;;23.10;11.10;;;7.90;99.90;;;;;;5057433;28;20370;-55
2023/04/19 03:54:55;;;;;;;23.08;10.15;;;7.90;99.90;;;;;;5053353;28;21772;-57
2023/04/19 03:57:31;;;;;;;31.30;13.23;;;7.90;99.90;;;;;;5052440;28;20049;-56
2023/04/19 04:00:06;;;;;;;24.60;10.10;;;8.00;99.90;;;;;;5059383;28;20045;-56
2023/04/19 04:02:40;;;;;;;26.10;10.57;;;8.00;99.90;;;;;;5062019;28;20388;-58
2023/04/19 04:05:09;;;;;;;30.63;10.93;;;8.00;99.90;;;;;;5060300;28;20128;-56
2023/04/19 04:07:39;;;;;;;23.13;10.60;;;8.00;99.90;;;;;;5067218;28;20051;-55
2023/04/19 04:10:08;;;;;;;24.33;10.88;;;8.00;99.90;;;;;;5070158;28;20052;-55
2023/04/19 04:12:41;;;;;;;28.10;10.75;;;8.00;99.90;;;;;;5068817;28;20037;-55
2023/04/19 04:15:13;;;;;;;19.58;10.63;;;8.00;99.90;;;;;;5069350;28;20040;-55
2023/04/19 04:17:46;;;;;;;28.42;10.82;;;8.10;99.90;;;;;;5068339;28;20052;-55
2023/04/19 04:20:15;;;;;;;26.42;11.10;;;8.10;99.90;;;;;;5071993;28;20037;-54
2023/04/19 04:22:45;;;;;;;23.20;10.57;;;8.10;99.90;;;;;;5072847;28;20452;-55
2023/04/19 04:25:14;;;;;;;22.23;11.25;;;8.10;99.90;;;;;;5069191;28;20115;-56
2023/04/19 04:27:43;;;;;;;23.95;10.93;;;8.10;99.90;;;;;;5061076;28;20063;-56
2023/04/19 04:30:14;;;;;;;38.17;12.52;;;8.10;99.90;;;;;;5062784;28;20045;-57
2023/04/19 04:32:43;;;;;;;27.33;10.95;;;8.10;99.90;;;;;;5058638;28;20604;-57
2023/04/19 04:35:11;;;;;;;25.88;10.85;;;8.10;99.90;;;;;;5047815;28;20373;-56
2023/04/19 04:37:45;;;;;;;26.25;11.23;;;8.10;99.90;;;;;;5021024;28;20065;-55
2023/04/19 04:40:14;;;;;;;27.75;11.23;;;8.10;99.90;;;;;;5029163;28;20052;-56
2023/04/19 04:42:44;;;;;;;32.60;11.90;;;8.10;99.90;;;;;;5021658;28;20036;-57
2023/04/19 04:45:12;;;;;;;28.38;12.15;;;8.10;99.90;;;;;;5020363;28;20052;-56
2023/04/19 04:47:45;;;;;;;21.52;11.40;;;8.10;99.90;;;;;;5023752;28;20045;-55
2023/04/19 04:50:14;;;;;;;22.00;11.25;;;8.10;99.90;;;;;;5038910;28;20112;-56
2023/04/19 04:52:42;;;;;;;24.83;11.20;;;8.10;99.90;;;;;;5031283;28;20067;-57
2023/04/19 04:55:16;;;;;;;28.02;11.93;;;8.10;99.90;;;;;;5007098;28;20049;-57
2023/04/19 04:57:44;;;;;;;28.83;11.60;;;8.10;99.90;;;;;;5019318;28;20049;-57
2023/04/19 05:00:22;;;;;;;26.35;12.93;;;8.10;99.90;;;;;;5030544;28;20037;-57
2023/04/19 05:03:10;;;;;;;24.08;11.52;;;8.10;99.90;;;;;;5008387;28;20044;-56
2023/04/19 05:05:46;;;;;;;27.00;12.13;;;8.10;99.90;;;;;;5021933;28;20044;-56
2023/04/19 05:08:13;;;;;;;25.35;11.35;;;8.10;99.90;;;;;;5026429;28;20325;-56
2023/04/19 05:10:44;;;;;;;31.00;12.13;;;8.10;99.90;;;;;;5017045;28;20052;-56
2023/04/19 05:13:14;;;;;;;25.92;11.75;;;8.10;99.90;;;;;;5036851;28;20080;-57
2023/04/19 05:15:42;;;;;;;28.75;12.55;;;8.10;99.90;;;;;;5042007;28;20056;-57
2023/04/19 05:18:11;;;;;;;24.27;12.35;;;;;;;;;;5015309;28;20044;-57
2023/04/19 05:20:39;;;;;;;21.33;11.38;;;8.10;99.90;;;;;;5018008;28;20052;-57
2023/04/19 05:23:15;;;;;;;28.38;11.75;;;8.10;99.90;;;;;;5024385;28;20037;-57
2023/04/19 05:25:43;;;;;;;27.33;11.18;;;8.10;99.90;;;;;;5026912;28;20037;-55
2023/04/19 05:28:11;;;;;;;19.27;11.95;;;8.10;99.90;;;;;;5016967;28;20068;-56
2023/04/19 05:30:47;;;;;;;28.42;11.85;;;8.20;99.90;;;;;;5025397;28;20514;-57
2023/04/19 05:33:15;;;;;;;27.20;11.57;;;8.10;99.90;;;;;;5027569;28;20045;-56
2023/04/19 05:35:42;;;;;;;29.73;12.48;;;8.10;99.90;;;;;;5057812;28;20649;-57
2023/04/19 05:38:10;;;;;;;26.63;12.85;;;8.10;99.90;;;;;;5043525;28;20412;-57
2023/04/19 05:40:39;;;;;;;33.08;12.38;;;8.20;99.90;;;;;;5059450;28;20033;-57
2023/04/19 05:43:06;;;;;;;25.90;12.45;;;8.20;99.90;;;;;;5048737;28;20049;-57
2023/04/19 05:45:34;;;;;;;28.20;11.80;;;8.20;99.90;;;;;;5064799;28;20045;-57
2023/04/19 05:48:02;;;;;;;29.85;12.77;;;8.20;99.90;;;;;;5039355;28;20075;-56
2023/04/19 05:50:48;;;;;;;24.40;11.57;;;8.20;99.90;;;;;;5045446;28;20477;-57
2023/04/19 05:53:40;;;;;;;26.83;12.27;;;8.30;99.90;;;;;;5048921;28;20045;-57
2023/04/19 05:56:08;;;;;;;23.08;11.32;;;8.20;99.90;;;;;;5051300;28;20039;-58
2023/04/19 05:58:35;;;;;;;30.02;12.10;;;8.30;99.90;;;;;;5068316;28;20044;-57
2023/04/19 06:01:03;;;;;;;31.25;12.32;;;8.30;99.90;;;;;;5063010;28;20052;-56
2023/04/19 06:03:32;;;;;;;29.42;13.63;;;8.30;99.90;;;;;;5056088;28;20060;-57
2023/04/19 06:06:01;;;;;;;22.80;10.27;;;8.40;99.90;;;;;;5050492;28;20056;-58
2023/04/19 06:08:29;;;;;;;25.10;12.48;;;8.30;99.90;;;;;;5062846;28;20041;-57
2023/04/19 06:10:56;;;;;;;30.17;11.98;;;8.40;99.90;;;;;;5066849;28;20063;-56
2023/04/19 06:13:34;;;;;;;27.05;12.45;;;8.40;99.90;;;;;;5059976;28;20045;-57
2023/04/19 06:16:02;;;;;;;28.80;11.82;;;8.40;99.90;;;;;;5048180;28;20052;-57
2023/04/19 06:18:31;;;;;;;22.60;11.55;;;8.30;99.90;;;;;;5055770;28;20059;-56
2023/04/19 06:21:01;;;;;;;32.83;12.95;;;8.30;99.90;;;;;;5066515;28;20036;-56
2023/04/19 06:23:29;;;;;;;34.45;11.48;;;8.30;99.90;;;;;;5054818;28;20049;-57
2023/04/19 06:25:56;;;;;;;25.67;11.82;;;8.30;99.90;;;;;;5061682;28;20050;-57
2023/04/19 06:28:26;;;;;;;31.60;13.20;;;8.30;99.90;;;;;;5059401;28;20052;-56
2023/04/19 06:30:54;;;;;;;28.08;11.80;;;8.20;99.90;;;;;;5058960;28;20050;-56
2023/04/19 06:33:21;;;;;;;26.90;13.60;;;8.20;99.90;;;;;;5063046;28;20041;-55
2023/04/19 06:35:49;;;;;;;30.25;12.65;;;8.20;99.90;;;;;;5032438;28;20052;-55
2023/04/19 06:38:17;;;;;;;32.80;12.35;;;8.20;99.90;;;;;;5043482;28;20045;-55
2023/04/19 06:40:45;;;;;;;35.50;12.45;;;8.20;99.90;;;;;;5049001;28;20053;-57
2023/04/19 06:43:12;;;;;;;26.50;11.63;;;8.20;99.90;;;;;;5041429;28;20048;-57
2023/04/19 06:45:40;;;;;;;31.63;13.13;;;8.20;99.90;;;;;;5041873;28;20049;-57
2023/04/19 06:48:08;;;;;;;32.15;13.20;;;8.20;99.90;;;;;;5034416;28;20045;-57
2023/04/19 06:50:36;;;;;;;35.10;13.15;;;8.20;99.90;;;;;;5025992;28;20469;-57
2023/04/19 06:53:03;;;;;;;28.05;13.07;;;8.30;99.90;;;;;;5030832;28;20535;-56
2023/04/19 06:55:31;;;;;;;31.95;13.77;;;8.40;99.90;;;;;;5048386;28;20049;-56
2023/04/19 06:57:59;;;;;;;32.75;14.55;;;8.40;99.90;;;;;;5025692;28;20052;-57
2023/04/19 07:00:26;;;;;;;30.83;13.60;;;8.50;99.90;;;;;;5013535;28;20205;-57
2023/04/19 07:02:58;;;;;;;29.95;13.05;;;8.60;99.90;;;;;;5043065;28;20041;-56
2023/04/19 07:05:26;;;;;;;;;;;8.60;99.90;;;;;;5036413;28;20788;-55
2023/04/19 07:07:53;;;;;;;45.58;14.60;;;8.70;99.90;;;;;;5044790;28;19921;-57
2023/04/19 07:10:21;;;;;;;26.42;13.38;;;8.70;99.90;;;;;;5043952;28;20063;-55
2023/04/19 07:12:49;;;;;;;27.10;14.18;;;8.80;99.90;;;;;;5023795;28;20037;-58
2023/04/19 07:15:17;;;;;;;28.70;14.07;;;8.80;99.90;;;;;;5034883;28;20056;-55
2023/04/19 07:17:45;;;;;;;35.97;13.45;;;8.80;99.90;;;;;;5036195;28;20041;-57
2023/04/19 07:20:13;;;;;;;27.85;13.68;;;8.80;99.90;;;;;;5030306;28;20057;-57
2023/04/19 07:22:40;;;;;;;31.88;14.80;;;8.80;99.90;;;;;;5038907;28;20399;-57
2023/04/19 07:25:09;;;;;;;29.67;13.57;;;8.80;99.90;;;;;;5026850;28;20045;-57
2023/04/19 07:27:39;;;;;;;29.75;14.80;;;8.80;99.90;;;;;;5028752;28;20053;-55
2023/04/19 07:30:07;;;;;;;;;;;8.90;99.90;;;;;;5025356;28;20057;-59
2023/04/19 07:32:34;;;;;;;29.67;12.85;;;8.80;99.90;;;;;;5025946;28;19920;-56
2023/04/19 07:35:03;;;;;;;32.95;14.02;;;8.90;99.90;;;;;;5051330;28;20044;-56
2023/04/19 07:37:30;;;;;;;25.83;13.18;;;8.90;99.90;;;;;;5060362;28;20107;-56
2023/04/19 07:40:00;;;;;;;38.47;13.65;;;8.90;99.90;;;;;;5053951;28;20067;-56
2023/04/19 07:42:30;;;;;;;;;;;9.00;99.90;;;;;;5048209;28;20049;-57
2023/04/19 07:44:59;;;;;;;30.92;13.07;;;9.00;99.90;;;;;;5051783;28;19920;-61
2023/04/19 07:47:26;;;;;;;33.03;13.65;;;9.10;99.90;;;;;;5067721;28;20054;-56
2023/04/19 07:49:55;;;;;;;25.77;11.57;;;9.00;99.90;;;;;;5062593;28;20049;-55
2023/04/19 07:52:22;;;;;;;24.05;12.50;;;9.10;99.90;;;;;;5048147;28;20044;-56
2023/04/19 07:54:50;;;;;;;27.98;14.27;;;9.20;99.90;;;;;;5049512;28;20049;-56
2023/04/19 07:57:18;;;;;;;26.15;12.50;;;9.20;99.90;;;;;;5030578;28;20048;-57
2023/04/19 07:59:46;;;;;;;27.17;13.65;;;9.20;99.90;;;;;;5067971;28;20048;-57
2023/04/19 08:02:15;;;;;;;27.73;13.85;;;9.30;99.90;;;;;;5050181;28;20052;-58
2023/04/19 08:04:46;;;;;;;30.30;12.73;;;9.40;99.90;;;;;;5066450;28;20051;-56
2023/04/19 08:07:15;;;;;;;30.17;13.27;;;9.40;99.90;;;;;;5056623;28;20531;-57
2023/04/19 08:09:42;;;;;;;31.23;12.77;;;9.50;99.90;;;;;;5048090;28;20040;-58
2023/04/19 08:12:10;;;;;;;22.60;11.93;;;9.50;99.90;;;;;;5049392;28;20037;-56
2023/04/19 08:14:52;;;;;;;28.45;12.10;;;9.60;99.90;;;;;;5048839;28;20067;-56
2023/04/19 08:17:40;;;;;;;31.90;12.90;;;9.60;99.90;;;;;;5056473;28;20048;-57
2023/04/19 08:20:13;;;;;;;26.55;12.68;;;9.60;99.90;;;;;;5064474;28;20044;-58
2023/04/19 08:22:41;;;;;;;29.45;11.88;;;9.70;99.90;;;;;;5050347;28;20041;-57
2023/04/19 08:25:09;;;;;;;23.10;12.48;;;9.80;99.90;;;;;;5049879;28;20041;-56
2023/04/19 08:27:36;;;;;;;22.83;12.57;;;9.80;99.90;;;;;;5055302;28;20051;-57
2023/04/19 08:30:06;;;;;;;28.50;13.50;;;9.90;99.90;;;;;;5048006;28;20049;-57
2023/04/19 08:32:34;;;;;;;23.88;13.00;;;9.90;99.90;;;;;;5067569;28;20063;-56
2023/04/19 08:35:03;;;;;;;24.90;13.02;;;9.90;99.90;;;;;;5050255;28;20049;-56
2023/04/19 08:37:30;;;;;;;24.10;11.52;;;9.90;99.90;;;;;;5050508;28;20048;-56
2023/04/19 08:40:00;;;;;;;27.13;12.73;;;10.00;99.90;;;;;;5066001;28;20045;-56
2023/04/19 08:42:30;;;;;;;30.42;13.50;;;10.00;99.90;;;;;;5067200;28;20041;-57
2023/04/19 08:45:05;;;;;;;28.02;13.88;;;9.90;99.90;;;;;;5060318;28;20045;-56
2023/04/19 08:47:36;;;;;;;29.02;13.65;;;10.00;99.90;;;;;;5051186;28;20088;-57
2023/04/19 08:50:24;;;;;;;31.05;12.32;;;10.10;99.90;;;;;;5064037;28;20756;-56
2023/04/19 08:53:06;;;;;;;29.35;12.82;;;10.20;99.90;;;;;;5047365;28;20049;-57
2023/04/19 08:55:57;;;;;;;32.00;14.48;;;10.20;99.90;;;;;;5059972;28;20511;-56
2023/04/19 08:58:31;;;;;;;34.28;15.73;;;10.30;99.90;;;;;;5052559;28;20044;-57
2023/04/19 09:01:19;;;;;;;35.70;14.10;;;10.40;99.90;;;;;;5071182;28;20381;-58
2023/04/19 09:04:06;;;;;;;27.60;13.38;;;10.60;99.90;;;;;;5068884;28;20052;-56
2023/04/19 09:06:57;;;;;;;26.52;13.90;;;10.70;99.90;;;;;;5066674;28;20493;-57
2023/04/19 09:09:28;;;;;;;27.00;14.32;;;10.80;99.90;;;;;;5066398;28;20052;-57
2023/04/19 09:11:59;;;;;;;32.03;14.23;;;10.90;99.90;;;;;;5070490;28;20476;-58
2023/04/19 09:14:27;;;;;;;21.25;12.05;;;11.10;99.90;;;;;;5037866;28;20186;-57
2023/04/19 09:17:15;;;;;;;22.75;12.25;;;11.10;99.90;;;;;;5059276;28;20048;-57
2023/04/19 09:19:47;;;;;;;26.85;11.55;;;11.30;99.90;;;;;;5051876;28;20048;-57
2023/04/19 09:22:15;;;;;;;26.70;12.95;;;11.40;99.90;;;;;;5053977;28;20037;-57
2023/04/19 09:24:43;;;;;;;24.30;11.18;;;11.60;99.90;;;;;;5032446;28;20056;-56
2023/04/19 09:27:33;;;;;;;22.65;10.05;;;11.60;99.90;;;;;;5049244;28;20056;-59
2023/04/19 09:30:12;;;;;;;24.38;9.63;;;11.90;99.90;;;;;;5063145;28;20044;-57
2023/04/19 09:32:57;;;;;;;22.83;11.27;;;11.80;99.90;;;;;;5065760;28;20045;-57
2023/04/19 09:35:46;;;;;;;24.80;10.73;;;12.00;99.90;;;;;;5050813;28;20049;-58
2023/04/19 09:38:15;;;;;;;20.13;10.48;;;12.10;99.90;;;;;;5058906;28;20041;-58
2023/04/19 09:40:43;;;;;;;18.08;10.45;;;12.20;99.90;;;;;;5051521;28;20052;-57
2023/04/19 09:43:11;;;;;;;22.80;10.48;;;12.30;99.90;;;;;;5067044;28;20044;-57
2023/04/19 09:45:59;;;;;;;20.75;10.43;;;;;;;;;;5068892;28;20129;-57
2023/04/19 09:48:27;;;;;;;18.90;9.55;;;12.80;99.90;;;;;;5066631;28;20395;-57
2023/04/19 09:50:57;;;;;;;24.70;10.68;;;12.70;99.90;;;;;;5063213;28;20090;-57
2023/04/19 09:53:34;;;;;;;20.85;10.43;;;12.80;99.90;;;;;;5049269;28;20040;-57
2023/04/19 09:56:04;;;;;;;19.35;10.82;;;12.90;99.90;;;;;;5056218;28;20507;-57
2023/04/19 09:58:32;;;;;;;26.13;13.38;;;12.90;99.90;;;;;;5059755;28;20481;-57
2023/04/19 10:01:03;;;;;;;19.55;10.90;;;13.00;99.90;;;;;;5069704;28;20060;-56
2023/04/19 10:03:47;;;;;;;18.13;9.80;;;13.00;99.90;;;;;;5033618;28;20045;-57
2023/04/19 10:06:17;;;;;;;18.23;10.70;;;13.00;99.90;;;;;;5045830;28;20309;-56
2023/04/19 10:08:49;;;;;;;21.67;10.13;;;12.90;99.90;;;;;;5040435;28;20041;-57
2023/04/19 10:11:20;;;;;;;20.63;10.57;;;12.90;99.90;;;;;;5050253;28;20053;-56
2023/04/19 10:13:50;;;;;;;16.38;10.18;;;13.00;99.90;;;;;;5060500;28;20032;-56
2023/04/19 10:16:17;;;;;;;24.90;9.90;;;13.00;99.90;;;;;;5066872;28;20044;-56
2023/04/19 10:18:51;;;;;;;18.73;9.55;;;13.00;99.90;;;;;;5076530;28;20300;-56
2023/04/19 10:21:20;;;;;;;22.65;9.18;;;13.00;99.90;;;;;;5064142;28;20044;-57
2023/04/19 10:23:47;;;;;;;14.43;9.00;;;13.00;99.90;;;;;;5058646;28;20044;-58
2023/04/19 10:26:15;;;;;;;22.98;10.15;;;13.00;99.90;;;;;;5068166;28;20400;-58
2023/04/19 10:28:43;;;;;;;18.17;8.52;;;13.00;99.90;;;;;;5061519;28;20044;-57
2023/04/19 10:31:12;;;;;;;25.00;9.25;;;13.00;99.90;;;;;;5064969;28;20531;-57
2023/04/19 10:33:40;;;;;;;20.38;8.57;;;13.10;99.90;;;;;;5063674;28;20068;-57
2023/04/19 10:36:09;;;;;;;16.85;9.68;;;13.30;99.90;;;;;;5048896;28;20049;-57
2023/04/19 10:38:44;;;;;;;14.40;8.10;;;13.50;99.90;;;;;;5047739;28;20045;-56
2023/04/19 10:41:15;;;;;;;17.80;8.48;;;13.70;99.90;;;;;;5048890;28;20049;-57
2023/04/19 10:43:53;;;;;;;19.50;9.73;;;13.90;99.90;;;;;;5046703;28;20045;-57
2023/04/19 10:46:21;;;;;;;18.63;7.85;;;14.00;99.90;;;;;;5032108;28;20056;-56
2023/04/19 10:48:58;;;;;;;24.17;9.40;;;14.00;99.90;;;;;;5043815;28;20045;-57
2023/04/19 10:51:35;;;;;;;18.38;9.05;;;14.10;99.90;;;;;;5031304;28;20049;-57
2023/04/19 10:54:07;;;;;;;14.00;8.52;;;14.30;99.90;;;;;;5027083;28;20072;-56
2023/04/19 10:56:55;;;;;;;21.75;8.35;;;14.40;99.90;;;;;;5043194;28;20052;-57
2023/04/19 10:59:23;;;;;;;20.10;8.52;;;14.60;99.90;;;;;;5046666;28;20489;-56
2023/04/19 11:02:01;;;;;;;18.27;8.32;;;14.80;99.90;;;;;;5036832;28;20049;-56
2023/04/19 11:04:29;;;;;;;17.30;8.50;;;15.00;99.90;;;;;;5047508;28;20052;-58
2023/04/19 11:07:03;;;;;;;13.02;7.55;;;15.00;99.90;;;;;;5047380;28;20053;-58
2023/04/19 11:09:37;;;;;;;18.95;8.23;;;14.90;99.90;;;;;;5039257;28;20060;-57
2023/04/19 11:12:09;;;;;;;16.42;8.85;;;14.80;99.90;;;;;;5048336;28;20045;-57
2023/04/19 11:14:41;;;;;;;15.02;7.72;;;14.70;99.90;;;;;;5042924;28;20052;-58
2023/04/19 11:17:17;;;;;;;19.38;8.52;;;14.60;99.90;;;;;;5037351;28;20487;-56
2023/04/19 11:19:52;;;;;;;20.08;9.38;;;14.50;99.90;;;;;;5045406;28;20045;-56
2023/04/19 11:22:34;;;;;;;16.33;8.90;;;14.50;99.90;;;;;;5048192;28;20045;-57
2023/04/19 11:25:11;;;;;;;27.90;9.35;;;14.40;99.90;;;;;;5012274;28;20234;-56
2023/04/19 11:27:41;;;;;;;14.85;8.15;;;14.40;99.90;;;;;;5042423;28;20056;-58
2023/04/19 11:30:19;;;;;;;21.45;9.27;;;16.40;99.90;;;;;;5043231;28;20412;-56
2023/04/19 11:32:50;;;;;;;17.35;8.63;;;14.20;99.90;;;;;;5044629;28;20052;-56
2023/04/19 11:35:23;;;;;;;21.13;8.90;;;14.20;99.90;;;;;;5043067;28;20056;-56
2023/04/19 11:37:54;;;;;;;18.95;9.07;;;14.10;99.90;;;;;;5035542;28;20397;-56
2023/04/19 11:40:25;;;;;;;18.40;8.98;;;14.00;99.90;;;;;;5046526;28;20055;-57
2023/04/19 11:42:59;;;;;;;15.90;9.35;;;14.00;99.90;;;;;;5042603;28;20037;-57
2023/04/19 11:45:35;;;;;;;16.33;8.77;;;14.10;99.90;;;;;;5044184;28;20045;-58
2023/04/19 11:48:16;;;;;;;19.50;8.95;;;14.20;99.90;;;;;;5035954;28;20619;-56
2023/04/19 11:50:44;;;;;;;19.25;8.15;;;14.20;99.90;;;;;;5036303;28;20046;-59
2023/04/19 11:53:17;;;;;;;19.33;9.90;;;14.20;99.90;;;;;;5043260;28;20740;-57
2023/04/19 11:55:52;;;;;;;17.33;8.40;;;14.30;99.90;;;;;;5028790;28;20052;-56
2023/04/19 11:58:49;;;;;;;17.75;8.00;;;14.30;99.90;;;;;;5020334;28;20045;-57
2023/04/19 12:01:21;;;;;;;17.65;7.95;;;14.30;99.90;;;;;;5040334;28;20037;-57
2023/04/19 12:03:50;;;;;;;18.23;8.65;;;14.30;99.90;;;;;;5026423;28;20393;-58
2023/04/19 12:06:24;;;;;;;16.20;8.18;;;15.60;99.90;;;;;;5024160;28;20511;-56
2023/04/19 12:08:53;;;;;;;16.33;8.27;;;14.50;99.90;;;;;;5043507;28;20053;-57
2023/04/19 12:11:40;;;;;;;22.45;7.70;;;14.70;99.90;;;;;;5044194;28;20052;-57
2023/04/19 12:14:12;;;;;;;16.67;7.75;;;14.90;99.90;;;;;;5042626;28;20436;-56
2023/04/19 12:16:40;;;;;;;13.88;6.47;;;15.00;99.90;;;;;;5035715;28;20046;-57
2023/04/19 12:19:19;;;;;;;14.38;8.05;;;15.00;99.90;;;;;;5027437;28;20640;-58
2023/04/19 12:21:47;;;;;;;15.77;6.43;;;15.10;99.90;;;;;;5027505;28;20061;-56
2023/04/19 12:24:17;;;;;;;15.20;7.65;;;15.10;99.90;;;;;;5038762;28;20037;-57
2023/04/19 12:26:55;;;;;;;17.88;7.80;;;15.10;99.90;;;;;;5029722;28;20057;-57
2023/04/19 12:29:23;;;;;;;21.15;7.53;;;15.10;99.90;;;;;;5047188;28;20049;-57
2023/04/19 12:31:51;;;;;;;14.63;6.90;;;15.10;99.90;;;;;;5039856;28;20052;-57
2023/04/19 12:34:19;;;;;;;13.85;7.07;;;15.10;99.90;;;;;;5044273;28;20432;-56
2023/04/19 12:36:47;;;;;;;12.15;5.88;;;15.20;99.90;;;;;;5049161;28;20519;-57
2023/04/19 12:39:15;;;;;;;16.30;6.47;;;15.30;99.90;;;;;;5066083;28;20043;-57
2023/04/19 12:41:43;;;;;;;19.83;6.60;;;15.30;99.90;;;;;;5069652;28;20044;-58
2023/04/19 12:44:10;;;;;;;11.10;6.47;;;15.30;99.90;;;;;;5058585;28;20041;-58
2023/04/19 12:46:38;;;;;;;13.05;5.32;;;15.30;99.90;;;;;;5062385;28;20060;-58
2023/04/19 12:49:06;;;;;;;16.70;6.75;;;15.30;99.90;;;;;;5044752;28;20051;-59
2023/04/19 12:51:36;;;;;;;16.50;7.03;;;15.30;99.90;;;;;;5041111;28;20376;-58
2023/04/19 12:54:06;;;;;;;;;;;15.20;99.90;;;;;;5057187;28;20507;-56
2023/04/19 12:56:34;;;;;;;16.70;5.75;;;15.20;99.90;;;;;;5039654;28;20265;-56
2023/04/19 12:59:02;;;;;;;11.10;5.57;;;15.10;99.90;;;;;;5056572;28;20400;-55